Time;durP1;ratioP1;P1;durP2;ratioP2;P2;SDS_P1;SDS_P2;PMS_P1;PMS_P2;Temp;Humidity;BMP_temperature;BMP_pressure;BME280_temperature;BME280_humidity;BME280_pressure;Samples;Min_cycle;Max_cycle;Signal;HPM_P1;HPM_P2
2022/03/31 00:00:39;;;;;;;25.80;11.55;;;409.80;1484.80;;;;;;4936828;29;20431;-82
2022/03/31 00:03:10;;;;;;;28.27;12.40;;;409.80;1484.80;;;;;;4922111;29;20410;-81
2022/03/31 00:05:37;;;;;;;30.67;12.05;;;409.70;1484.80;;;;;;4922095;29;20443;-80
2022/03/31 00:08:06;;;;;;;26.45;11.70;;;409.70;1484.80;;;;;;4936568;29;20392;-80
2022/03/31 00:10:34;;;;;;;25.92;11.30;;;409.70;1510.40;;;;;;4936472;29;20814;-82
2022/03/31 00:13:03;;;;;;;29.33;11.57;;;409.70;1484.80;;;;;;4936701;29;20992;-80
2022/03/31 00:15:30;;;;;;;29.02;12.35;;;409.70;1484.80;;;;;;4936146;29;20411;-83
2022/03/31 00:18:00;;;;;;;32.03;12.38;;;409.70;1510.40;;;;;;4934351;29;20388;-80
2022/03/31 00:20:27;;;;;;;24.92;11.75;;;409.70;1510.40;;;;;;4933721;29;20396;-82
2022/03/31 00:22:54;;;;;;;27.80;11.65;;;409.60;1510.40;;;;;;4933536;29;20383;-81
2022/03/31 00:25:20;;;;;;;28.38;11.48;;;409.60;1510.40;;;;;;4918878;29;20463;-82
2022/03/31 00:27:46;;;;;;;25.83;10.90;;;409.70;1484.80;;;;;;4918902;29;20880;-82
2022/03/31 00:30:13;;;;;;;30.35;12.10;;;409.70;1484.80;;;;;;4918874;29;20446;-83
2022/03/31 00:32:40;;;;;;;30.83;11.77;;;409.70;1484.80;;;;;;4917651;29;20392;-80
2022/03/31 00:35:08;;;;;;;28.40;12.02;;;409.70;1510.40;;;;;;4918732;29;20884;-81
2022/03/31 00:37:34;;;;;;;30.83;12.30;;;409.60;1510.40;;;;;;4918679;29;20465;-81
2022/03/31 00:40:00;;;;;;;27.85;12.13;;;409.70;1510.40;;;;;;4918710;29;20382;-80
2022/03/31 00:42:26;;;;;;;30.65;12.27;;;409.60;1510.40;;;;;;4933242;29;20897;-80
2022/03/31 00:44:53;;;;;;;29.75;12.60;;;409.60;1510.40;;;;;;4918535;29;20383;-80
2022/03/31 00:47:19;;;;;;;30.83;12.30;;;409.60;1510.40;;;;;;4933133;29;20400;-80
2022/03/31 00:49:45;;;;;;;27.95;12.52;;;409.60;1510.40;;;;;;4932683;29;20493;-80
2022/03/31 00:52:12;;;;;;;27.77;12.30;;;384.90;1484.80;;;;;;4918691;29;20388;-81
2022/03/31 00:54:40;;;;;;;36.83;12.65;;;384.90;1484.80;;;;;;4932928;29;20493;-80
2022/03/31 00:57:08;;;;;;;26.85;12.13;;;384.90;1484.80;;;;;;4918464;29;20737;-81
2022/03/31 00:59:34;;;;;;;31.10;11.77;;;384.90;1484.80;;;;;;4918246;29;20383;-80
2022/03/31 01:02:00;;;;;;;26.23;11.87;;;384.90;1484.80;;;;;;4932776;29;20387;-80
2022/03/31 01:04:30;;;;;;;30.75;12.10;;;384.90;1484.80;;;;;;4918260;29;20388;-80
2022/03/31 01:06:56;;;;;;;33.22;11.73;;;384.90;1484.80;;;;;;4916793;29;20383;-80
2022/03/31 01:09:22;;;;;;;29.95;11.93;;;384.90;1484.80;;;;;;4901124;29;20398;-80
2022/03/31 01:11:48;;;;;;;29.63;11.63;;;384.90;1459.20;;;;;;4901142;29;20392;-80
2022/03/31 01:14:15;;;;;;;26.13;11.10;;;384.90;1459.20;;;;;;4900639;29;20423;-80
2022/03/31 01:16:41;;;;;;;31.23;12.20;;;384.80;1484.80;;;;;;4900879;29;20467;-80
2022/03/31 01:19:09;;;;;;;28.47;11.80;;;384.80;1484.80;;;;;;4917825;29;20911;-81
2022/03/31 01:21:40;;;;;;;31.50;12.25;;;384.80;1484.80;;;;;;4917900;29;20520;-80
2022/03/31 01:24:07;;;;;;;31.60;12.43;;;384.80;1484.80;;;;;;4918045;29;20857;-80
2022/03/31 01:26:34;;;;;;;29.13;11.88;;;384.70;1484.80;;;;;;4917428;29;20419;-80
2022/03/31 01:29:01;;;;;;;33.13;12.30;;;384.70;1484.80;;;;;;4900076;29;20396;-80
2022/03/31 01:31:27;;;;;;;29.60;11.02;;;384.70;1484.80;;;;;;4900283;29;20388;-80
2022/03/31 01:33:53;;;;;;;33.08;10.40;;;384.70;1459.20;;;;;;4900074;29;20415;-80
2022/03/31 01:36:19;;;;;;;29.85;10.98;;;384.60;1459.20;;;;;;4900320;29;20383;-84
2022/03/31 01:38:46;;;;;;;29.60;11.27;;;384.60;1459.20;;;;;;4917540;29;20399;-81
2022/03/31 01:41:12;;;;;;;30.10;10.88;;;384.50;1459.20;;;;;;4917198;29;20861;-80
2022/03/31 01:43:38;;;;;;;35.90;11.27;;;384.50;1459.20;;;;;;4916273;29;20419;-80
2022/03/31 01:46:07;;;;;;;33.70;11.53;;;384.60;1459.20;;;;;;4900398;29;20392;-80
2022/03/31 01:48:34;;;;;;;35.20;11.03;;;384.50;1459.20;;;;;;4900520;29;20453;-81
2022/03/31 01:51:00;;;;;;;29.05;11.32;;;384.60;1459.20;;;;;;4900407;29;20392;-81
2022/03/31 01:53:26;;;;;;;34.17;11.50;;;384.60;1459.20;;;;;;4917167;29;20475;-80
2022/03/31 01:55:52;;;;;;;36.03;11.93;;;384.50;1459.20;;;;;;4916206;29;20482;-81
2022/03/31 01:58:18;;;;;;;35.40;11.63;;;384.50;1459.20;;;;;;4917427;29;20395;-81
2022/03/31 02:00:44;;;;;;;32.07;10.80;;;384.50;1459.20;;;;;;4900067;29;20399;-81
2022/03/31 02:03:10;;;;;;;32.55;11.45;;;384.50;1484.80;;;;;;4917169;29;20442;-82
2022/03/31 02:05:36;;;;;;;32.15;10.75;;;384.50;1459.20;;;;;;4900157;29;20738;-81
2022/03/31 02:08:02;;;;;;;36.35;11.15;;;384.50;1459.20;;;;;;4900007;29;20753;-80
2022/03/31 02:10:28;;;;;;;31.70;10.90;;;384.50;1484.80;;;;;;4917099;29;20387;-82
2022/03/31 02:12:54;;;;;;;31.10;11.00;;;384.50;1484.80;;;;;;4899907;29;20395;-80
2022/03/31 02:15:21;;;;;;;31.05;10.10;;;384.40;1484.80;;;;;;4899740;29;20419;-84
2022/03/31 02:17:52;;;;;;;35.20;9.98;;;384.40;1510.40;;;;;;4916630;29;20392;-80
2022/03/31 02:20:17;;;;;;;34.33;9.50;;;384.30;1484.80;;;;;;4917007;29;20394;-81
2022/03/31 02:22:43;;;;;;;25.80;9.40;;;384.30;1484.80;;;;;;4916897;29;20380;-82
2022/03/31 02:25:11;;;;;;;30.30;9.67;;;384.30;1484.80;;;;;;4915608;29;20395;-82
2022/03/31 02:27:37;;;;;;;30.42;9.75;;;384.30;1484.80;;;;;;4915676;29;20375;-81
2022/03/31 02:30:06;;;;;;;32.47;10.00;;;384.20;1484.80;;;;;;4916728;29;20761;-80
2022/03/31 02:32:32;;;;;;;29.35;10.00;;;384.30;1484.80;;;;;;4899810;29;20383;-81
2022/03/31 02:34:58;;;;;;;29.90;9.93;;;384.40;1484.80;;;;;;4916531;29;20423;-80
2022/03/31 02:37:24;;;;;;;27.27;8.80;;;384.30;1484.80;;;;;;4915544;29;20790;-80
2022/03/31 02:39:50;;;;;;;28.50;9.40;;;384.40;1484.80;;;;;;4915245;29;20475;-80
2022/03/31 02:42:17;;;;;;;27.52;8.82;;;384.30;1484.80;;;;;;4914968;29;20475;-80
2022/03/31 02:44:44;;;;;;;35.38;9.00;;;384.40;1459.20;;;;;;4915172;29;20821;-80
2022/03/31 02:47:11;;;;;;;30.60;9.45;;;384.30;1459.20;;;;;;4916448;29;20383;-82
2022/03/31 02:49:38;;;;;;;30.40;8.65;;;384.30;1459.20;;;;;;4915222;29;20395;-80
2022/03/31 02:52:04;;;;;;;29.50;9.00;;;384.30;1459.20;;;;;;4916384;29;20379;-80
2022/03/31 02:57:15;;;;;;;31.92;8.95;;;384.30;1459.20;;;;;;4916427;29;20370;-81
2022/03/31 02:59:41;;;;;;;29.73;10.00;;;384.30;1484.80;;;;;;4915036;29;20395;-81
2022/03/31 03:02:07;;;;;;;26.52;8.85;;;384.30;1484.80;;;;;;4899337;29;20390;-80
2022/03/31 03:04:34;;;;;;;30.77;9.20;;;384.40;1459.20;;;;;;4916226;29;20388;-81
2022/03/31 03:07:00;;;;;;;31.00;8.73;;;384.40;1484.80;;;;;;4914952;29;20726;-80
2022/03/31 03:09:26;;;;;;;31.30;9.17;;;384.40;1484.80;;;;;;4915550;29;20403;-80
2022/03/31 03:11:52;;;;;;;27.70;8.57;;;384.30;1484.80;;;;;;4916024;29;20479;-82
2022/03/31 03:14:17;;;;;;;33.13;9.53;;;384.30;1484.80;;;;;;4898776;29;20423;-81
2022/03/31 03:16:44;;;;;;;32.15;9.65;;;384.30;1510.40;;;;;;4914959;29;20423;-81
2022/03/31 03:19:10;;;;;;;37.22;9.07;;;384.20;1510.40;;;;;;4916045;29;20407;-81
2022/03/31 03:21:36;;;;;;;29.15;9.20;;;384.10;1561.60;;;;;;4914966;29;20878;-80
2022/03/31 03:24:03;;;;;;;28.08;9.15;;;384.30;1561.60;;;;;;4916045;29;20423;-80
2022/03/31 03:26:29;;;;;;;30.13;9.63;;;384.00;1561.60;;;;;;4899218;29;20407;-80
2022/03/31 03:28:55;;;;;;;36.53;9.75;;;384.10;1561.60;;;;;;4916125;29;20467;-80
2022/03/31 03:31:21;;;;;;;31.58;8.50;;;359.30;1612.80;;;;;;4916031;29;20387;-81
2022/03/31 03:33:47;;;;;;;31.27;9.10;;;359.30;1638.40;;;;;;4914613;29;20581;-80
2022/03/31 03:36:16;;;;;;;27.10;7.97;;;359.20;1689.60;;;;;;4915919;29;20486;-81
2022/03/31 03:38:43;;;;;;;32.90;8.50;;;359.20;1715.20;;;;;;4914610;29;20487;-81
2022/03/31 03:41:13;;;;;;;28.17;8.90;;;359.10;1740.80;;;;;;4914746;29;20497;-82
2022/03/31 03:43:43;;;;;;;27.90;8.75;;;359.00;1766.40;;;;;;4916232;29;20387;-81
2022/03/31 03:46:10;;;;;;;28.23;8.40;;;359.00;1766.40;;;;;;4899034;29;20789;-80
2022/03/31 03:48:36;;;;;;;24.70;8.18;;;359.00;1792.00;;;;;;4914726;29;20399;-80
2022/03/31 03:51:02;;;;;;;21.75;8.20;;;359.00;1817.60;;;;;;4915896;29;20451;-82
2022/03/31 03:53:28;;;;;;;24.23;8.63;;;359.00;1817.60;;;;;;4916233;29;20395;-81
2022/03/31 03:55:54;;;;;;;25.60;8.95;;;359.00;1817.60;;;;;;4918281;29;20399;-80
2022/03/31 03:58:20;;;;;;;27.63;9.27;;;359.10;1817.60;;;;;;4918177;29;20388;-80
2022/03/31 04:00:46;;;;;;;25.63;8.87;;;359.10;1817.60;;;;;;4917909;29;20484;-81
2022/03/31 04:03:12;;;;;;;28.42;9.32;;;359.10;1817.60;;;;;;4918048;29;21015;-81
2022/03/31 04:05:38;;;;;;;21.48;8.10;;;359.10;1817.60;;;;;;4902145;29;20396;-81
2022/03/31 04:08:04;;;;;;;20.00;7.28;;;359.10;1843.20;;;;;;4917788;29;20383;-80
2022/03/31 04:10:33;;;;;;;21.20;7.82;;;359.10;1843.20;;;;;;4918066;29;20922;-81
2022/03/31 04:12:59;;;;;;;21.90;7.83;;;359.10;1843.20;;;;;;4918050;29;20471;-80
2022/03/31 04:15:25;;;;;;;16.73;7.57;;;359.00;1868.80;;;;;;4919057;29;20498;-82
2022/03/31 04:17:51;;;;;;;21.60;8.50;;;359.00;1894.40;;;;;;4901866;29;20395;-80
2022/03/31 04:20:17;;;;;;;24.15;9.50;;;359.00;1894.40;;;;;;4917908;29;20428;-81
2022/03/31 04:22:42;;;;;;;26.88;9.43;;;359.00;1894.40;;;;;;4919048;29;20407;-81
2022/03/31 04:25:10;;;;;;;19.05;8.20;;;359.00;1945.60;;;;;;4902199;29;20411;-81
2022/03/31 04:27:38;;;;;;;22.95;7.60;;;359.00;1945.60;;;;;;4917802;29;20463;-81
2022/03/31 04:30:06;;;;;;;28.95;10.32;;;359.00;1945.60;;;;;;4917542;29;20391;-81
2022/03/31 04:32:33;;;;;;;27.17;11.77;;;359.00;1971.20;;;;;;4916772;29;20869;-81
2022/03/31 04:34:58;;;;;;;29.95;11.32;;;359.00;1971.20;;;;;;4918322;29;20474;-81
2022/03/31 04:37:24;;;;;;;36.77;11.87;;;359.00;1996.80;;;;;;4901789;29;20893;-81
2022/03/31 04:39:50;;;;;;;38.47;11.68;;;359.00;2022.40;;;;;;4917659;29;20395;-81
2022/03/31 04:42:16;;;;;;;36.10;12.27;;;359.00;2048.00;;;;;;4918761;29;20391;-81
2022/03/31 04:44:42;;;;;;;37.80;12.43;;;359.00;2022.40;;;;;;4901647;29;20396;-81
2022/03/31 04:47:11;;;;;;;34.75;11.75;;;359.10;2048.00;;;;;;4917314;29;20419;-81
2022/03/31 04:49:37;;;;;;;29.20;10.80;;;359.00;2073.60;;;;;;4901447;29;20396;-81
2022/03/31 04:52:04;;;;;;;24.17;10.48;;;359.00;2073.60;;;;;;4917275;29;20523;-81
2022/03/31 04:54:30;;;;;;;30.07;15.63;;;359.00;2099.20;;;;;;4917276;29;20545;-82
2022/03/31 04:56:56;;;;;;;28.15;11.68;;;358.90;2150.40;;;;;;4917289;29;20470;-81
2022/03/31 04:59:22;;;;;;;20.70;9.52;;;358.90;2176.00;;;;;;4901581;29;20396;-81
2022/03/31 05:01:48;;;;;;;23.40;8.65;;;358.90;2227.20;;;;;;4901528;29;20408;-81
2022/03/31 05:04:14;;;;;;;17.67;7.90;;;358.80;2278.40;;;;;;4916788;29;20777;-81
2022/03/31 05:06:41;;;;;;;30.73;15.55;;;358.80;2329.60;;;;;;4901412;29;20384;-81
2022/03/31 05:09:07;;;;;;;36.20;19.55;;;358.80;2329.60;;;;;;4916935;29;20778;-81
2022/03/31 05:11:34;;;;;;;29.45;15.43;;;358.80;2329.60;;;;;;4917011;29;20426;-81
2022/03/31 05:14:00;;;;;;;32.00;17.35;;;358.80;2329.60;;;;;;4916900;29;20498;-81
2022/03/31 05:16:25;;;;;;;25.45;10.93;;;358.90;2329.60;;;;;;4918012;29;20463;-81
2022/03/31 05:18:51;;;;;;;23.20;10.13;;;358.90;2329.60;;;;;;4916598;29;20419;-80
2022/03/31 05:21:17;;;;;;;23.45;9.63;;;358.90;2329.60;;;;;;4916809;29;20388;-81
2022/03/31 05:23:43;;;;;;;26.23;10.93;;;359.00;2329.60;;;;;;4917921;29;20458;-80
2022/03/31 05:26:09;;;;;;;28.17;13.63;;;359.00;2329.60;;;;;;4916535;29;20923;-81
2022/03/31 05:28:35;;;;;;;23.50;10.70;;;359.00;2329.60;;;;;;4917778;29;20384;-80
2022/03/31 05:31:01;;;;;;;24.25;10.35;;;359.00;2329.60;;;;;;4916461;29;20402;-80
2022/03/31 05:33:28;;;;;;;22.60;10.50;;;359.00;2329.60;;;;;;4900669;29;20390;-81
2022/03/31 05:35:54;;;;;;;23.65;10.65;;;359.00;2329.60;;;;;;4900580;29;20411;-80
2022/03/31 05:38:20;;;;;;;28.05;12.18;;;358.80;2329.60;;;;;;4916014;29;20384;-80
2022/03/31 05:40:46;;;;;;;23.05;12.20;;;359.00;2329.60;;;;;;4916445;29;20474;-81
2022/03/31 05:43:12;;;;;;;21.70;9.40;;;359.00;2329.60;;;;;;4916341;29;21013;-81
2022/03/31 05:45:38;;;;;;;19.50;8.63;;;359.00;2329.60;;;;;;4917851;29;20470;-80
2022/03/31 05:48:04;;;;;;;21.88;8.80;;;359.00;2329.60;;;;;;4916368;29;20383;-80
2022/03/31 05:50:30;;;;;;;26.13;13.25;;;359.10;2329.60;;;;;;4916383;29;20880;-81
2022/03/31 05:52:56;;;;;;;27.23;14.43;;;359.20;2329.60;;;;;;4916136;29;20388;-80
2022/03/31 05:55:22;;;;;;;22.88;10.18;;;359.20;2329.60;;;;;;4917349;29;20853;-82
2022/03/31 05:57:48;;;;;;;18.83;9.70;;;359.20;2329.60;;;;;;4916156;29;20451;-80
2022/03/31 06:00:17;;;;;;;21.75;9.85;;;359.20;2329.60;;;;;;4916018;29;20451;-80
2022/03/31 06:02:46;;;;;;;20.13;9.45;;;359.20;2329.60;;;;;;4916131;29;20430;-80
2022/03/31 06:05:13;;;;;;;22.60;10.48;;;359.20;2329.60;;;;;;4916004;29;20475;-81
2022/03/31 06:07:39;;;;;;;23.70;10.55;;;359.30;2329.60;;;;;;4916931;29;20415;-80
2022/03/31 06:10:06;;;;;;;23.63;10.60;;;359.30;2329.60;;;;;;4915365;29;20734;-80
2022/03/31 06:12:32;;;;;;;22.20;10.40;;;359.30;2329.60;;;;;;4916383;29;20430;-80
2022/03/31 06:14:59;;;;;;;20.13;10.02;;;359.30;2329.60;;;;;;4915443;29;20419;-80
2022/03/31 06:17:24;;;;;;;34.00;19.03;;;359.30;2329.60;;;;;;4915104;29;20465;-83
2022/03/31 06:19:50;;;;;;;35.70;21.77;;;359.30;2329.60;;;;;;4916352;29;20422;-81
2022/03/31 06:22:16;;;;;;;35.70;23.30;;;384.00;2329.60;;;;;;4916807;29;20875;-80
2022/03/31 06:24:42;;;;;;;24.48;15.60;;;384.00;2329.60;;;;;;4899839;29;20392;-80
2022/03/31 06:27:09;;;;;;;55.43;40.43;;;384.00;2329.60;;;;;;4899112;29;20484;-80
2022/03/31 06:29:35;;;;;;;26.40;16.63;;;384.00;2329.60;;;;;;4923965;29;20406;-80
2022/03/31 06:32:02;;;;;;;27.35;18.27;;;384.00;2329.60;;;;;;4899281;29;20860;-82
2022/03/31 06:34:28;;;;;;;32.42;15.93;;;384.00;2329.60;;;;;;4901723;29;20426;-83
2022/03/31 06:36:55;;;;;;;26.33;18.35;;;384.00;2329.60;;;;;;4921382;29;20385;-82
2022/03/31 06:39:21;;;;;;;22.77;12.13;;;384.00;2329.60;;;;;;4922692;29;20387;-80
2022/03/31 06:41:47;;;;;;;23.40;12.65;;;384.00;2329.60;;;;;;4915391;29;20396;-80
2022/03/31 06:44:15;;;;;;;22.90;11.50;;;384.00;2329.60;;;;;;4899477;29;20797;-80
2022/03/31 06:46:42;;;;;;;20.35;10.10;;;384.00;2329.60;;;;;;4915251;29;20403;-81
2022/03/31 06:49:09;;;;;;;22.45;11.35;;;384.00;2329.60;;;;;;4916292;29;20380;-81
2022/03/31 06:51:35;;;;;;;38.00;22.67;;;384.20;2329.60;;;;;;4898663;29;20402;-82
2022/03/31 06:54:02;;;;;;;60.38;36.97;;;384.30;2329.60;;;;;;4914504;29;20399;-83
2022/03/31 06:56:29;;;;;;;59.47;41.42;;;384.30;2329.60;;;;;;4914430;29;20447;-81
2022/03/31 06:58:55;;;;;;;32.90;22.30;;;384.90;2329.60;;;;;;4914571;29;20416;-82
2022/03/31 07:01:22;;;;;;;27.58;16.30;;;384.40;2329.60;;;;;;4898633;29;20388;-82
2022/03/31 07:03:48;;;;;;;21.08;11.73;;;384.60;2329.60;;;;;;4896490;29;20388;-82
2022/03/31 07:06:15;;;;;;;29.40;13.57;;;384.60;2329.60;;;;;;4914078;29;20968;-83
2022/03/31 07:08:41;;;;;;;38.03;15.23;;;384.90;2329.60;;;;;;4914889;29;20534;-82
2022/03/31 07:11:10;;;;;;;35.88;15.98;;;384.80;2329.60;;;;;;4915792;29;20403;-82
2022/03/31 07:13:37;;;;;;;17.90;9.35;;;384.90;2329.60;;;;;;4915979;29;20387;-82
2022/03/31 07:16:03;;;;;;;17.83;8.20;;;384.90;2329.60;;;;;;4920276;29;20388;-81
2022/03/31 07:18:29;;;;;;;15.03;8.13;;;409.70;2355.20;;;;;;4898502;29;20491;-83
2022/03/31 07:20:57;;;;;;;14.10;7.45;;;409.80;2355.20;;;;;;4917704;29;20478;-83
2022/03/31 07:23:25;;;;;;;20.98;9.50;;;410.00;2355.20;;;;;;4917103;29;20552;-83
2022/03/31 07:25:52;;;;;;;18.73;9.00;;;410.10;2355.20;;;;;;4916304;29;20495;-82
2022/03/31 07:28:18;;;;;;;26.70;12.40;;;410.30;2355.20;;;;;;4918775;29;20395;-81
2022/03/31 07:30:44;;;;;;;52.78;18.90;;;410.40;2355.20;;;;;;4919111;29;20805;-82
2022/03/31 07:33:09;;;;;;;37.93;19.80;;;435.20;2355.20;;;;;;4919504;29;20418;-81
2022/03/31 07:35:40;;;;;;;92.80;58.45;;;435.30;2355.20;;;;;;4918939;29;20430;-81
2022/03/31 07:38:08;;;;;;;43.25;21.58;;;435.40;2355.20;;;;;;4902551;29;20395;-79
2022/03/31 07:40:36;;;;;;;27.55;11.95;;;435.50;2329.60;;;;;;4913052;29;20514;-80
2022/03/31 07:43:04;;;;;;;38.90;13.25;;;435.50;2329.60;;;;;;4917420;29;20390;-80
2022/03/31 07:45:30;;;;;;;36.20;14.07;;;435.60;2329.60;;;;;;4902181;29;20847;-80
2022/03/31 07:47:56;;;;;;;44.50;15.13;;;435.70;2304.00;;;;;;4918838;29;20368;-80
2022/03/31 07:50:22;;;;;;;38.00;13.32;;;435.80;2278.40;;;;;;4918285;29;20419;-79
2022/03/31 07:52:49;;;;;;;31.63;12.68;;;436.10;2278.40;;;;;;4919034;29;20394;-79
2022/03/31 07:55:17;;;;;;;28.13;12.23;;;460.80;2227.20;;;;;;4901053;29;20412;-79
2022/03/31 07:57:44;;;;;;;28.37;10.50;;;460.90;2278.40;;;;;;4917599;29;20416;-79
2022/03/31 08:00:12;;;;;;;30.77;13.27;;;461.20;2252.80;;;;;;4916431;29;20392;-79
2022/03/31 08:02:50;;;;;;;29.65;11.15;;;461.50;2201.60;;;;;;4916797;29;20384;-79
2022/03/31 08:05:18;;;;;;;62.50;26.83;;;461.60;2201.60;;;;;;4917718;29;20388;-79
2022/03/31 08:07:44;;;;;;;37.40;18.42;;;461.40;2176.00;;;;;;4917852;29;20383;-79
2022/03/31 08:10:10;;;;;;;25.25;11.25;;;461.20;2201.60;;;;;;4917890;29;20756;-79
2022/03/31 08:12:36;;;;;;;25.95;10.13;;;461.10;2227.20;;;;;;4917815;29;20384;-79
2022/03/31 08:15:04;;;;;;;26.55;10.57;;;461.00;2227.20;;;;;;4917813;29;20753;-79
2022/03/31 08:17:30;;;;;;;29.15;10.60;;;461.10;2252.80;;;;;;4917306;29;20387;-79
2022/03/31 08:19:56;;;;;;;26.92;11.60;;;461.00;2278.40;;;;;;4917369;29;20407;-79
2022/03/31 08:22:23;;;;;;;25.73;10.63;;;461.50;2201.60;;;;;;4901989;29;20392;-78
2022/03/31 08:24:49;;;;;;;25.77;11.13;;;486.50;2176.00;;;;;;4918847;29;20473;-79
2022/03/31 08:27:15;;;;;;;25.23;10.13;;;486.60;2150.40;;;;;;4901832;29;20376;-79
2022/03/31 08:29:41;;;;;;;27.27;11.05;;;486.40;2176.00;;;;;;4901750;29;20438;-79
2022/03/31 08:32:08;;;;;;;25.33;10.90;;;461.60;2150.40;;;;;;4901731;29;20391;-79
2022/03/31 08:34:34;;;;;;;28.55;11.85;;;461.60;2176.00;;;;;;4935263;29;20918;-79
2022/03/31 08:37:00;;;;;;;27.10;10.65;;;461.50;2227.20;;;;;;4936375;29;20378;-79
2022/03/31 08:39:26;;;;;;;24.10;9.55;;;461.40;2201.60;;;;;;4936690;29;20867;-79
2022/03/31 08:41:52;;;;;;;28.90;9.67;;;461.40;2201.60;;;;;;4937618;29;20378;-80
2022/03/31 08:44:22;;;;;;;38.10;10.18;;;461.30;2227.20;;;;;;4936255;29;20393;-79
2022/03/31 08:46:51;;;;;;;20.90;9.20;;;461.10;2227.20;;;;;;4919616;29;20388;-79
2022/03/31 08:49:19;;;;;;;26.27;8.73;;;461.00;2278.40;;;;;;4935781;29;20913;-81
2022/03/31 08:51:46;;;;;;;23.50;8.77;;;461.00;2278.40;;;;;;4935920;29;20393;-80
2022/03/31 08:54:12;;;;;;;24.23;9.07;;;461.00;2252.80;;;;;;4937533;29;20436;-79
2022/03/31 08:56:39;;;;;;;21.02;7.22;;;461.00;2252.80;;;;;;4937110;29;20856;-79
2022/03/31 08:59:06;;;;;;;24.60;7.80;;;461.20;2227.20;;;;;;4920225;29;20799;-79
2022/03/31 09:01:32;;;;;;;22.40;8.05;;;461.40;2176.00;;;;;;4920071;29;20867;-78
2022/03/31 09:03:58;;;;;;;27.37;7.93;;;461.50;2201.60;;;;;;4919592;29;20394;-80
2022/03/31 09:06:28;;;;;;;25.25;7.53;;;461.70;2176.00;;;;;;4919852;29;20485;-81
2022/03/31 09:09:04;;;;;;;22.67;7.97;;;461.70;2150.40;;;;;;4933758;29;20879;-81
2022/03/31 09:11:32;;;;;;;21.27;9.37;;;461.60;2150.40;;;;;;4935759;29;20382;-79
2022/03/31 09:14:00;;;;;;;24.38;9.07;;;461.50;2150.40;;;;;;4919992;29;20394;-79
2022/03/31 09:16:38;;;;;;;25.23;8.98;;;461.30;2150.40;;;;;;4935692;29;20402;-79
2022/03/31 09:19:14;;;;;;;21.92;7.47;;;461.40;2150.40;;;;;;4935497;29;20417;-79
2022/03/31 09:21:52;;;;;;;25.70;7.20;;;461.40;2124.80;;;;;;4935663;29;20429;-78
2022/03/31 09:24:23;;;;;;;24.15;7.70;;;461.40;2073.60;;;;;;4935553;29;20751;-79
2022/03/31 09:26:50;;;;;;;18.17;7.05;;;461.50;2073.60;;;;;;4936665;29;20393;-79
2022/03/31 09:29:19;;;;;;;23.92;7.43;;;461.60;2073.60;;;;;;4936218;29;20390;-83
2022/03/31 09:31:46;;;;;;;20.50;5.80;;;461.50;2048.00;;;;;;4936146;29;20434;-79
2022/03/31 09:34:15;;;;;;;19.50;5.75;;;461.50;2099.20;;;;;;4936795;29;20814;-83
2022/03/31 09:36:50;;;;;;;22.25;7.00;;;461.40;2048.00;;;;;;4936768;29;20386;-78
2022/03/31 09:39:17;;;;;;;21.58;6.75;;;461.50;2048.00;;;;;;4935093;29;20386;-79
2022/03/31 09:41:50;;;;;;;19.70;6.70;;;461.50;2048.00;;;;;;4935306;29;20716;-78
2022/03/31 09:44:22;;;;;;;23.83;7.95;;;461.60;2048.00;;;;;;4935165;29;20473;-79
2022/03/31 09:46:49;;;;;;;25.40;9.55;;;461.70;2048.00;;;;;;4936472;29;20484;-79
2022/03/31 09:49:26;;;;;;;24.05;9.88;;;461.70;2022.40;;;;;;4935041;29;20473;-79
2022/03/31 09:51:54;;;;;;;23.13;7.65;;;461.70;1971.20;;;;;;4935039;29;20426;-81
2022/03/31 09:54:26;;;;;;;22.60;6.50;;;486.40;1945.60;;;;;;4919207;29;20398;-83
2022/03/31 09:56:52;;;;;;;22.13;7.90;;;486.40;1920.00;;;;;;4936022;29;20451;-80
2022/03/31 09:59:19;;;;;;;21.23;6.75;;;486.40;1920.00;;;;;;4934474;29;20382;-79
2022/03/31 10:01:45;;;;;;;22.30;6.60;;;486.60;1894.40;;;;;;4935918;29;20383;-82
2022/03/31 10:04:13;;;;;;;18.03;5.20;;;486.60;1894.40;;;;;;4918824;29;20394;-82
2022/03/31 10:06:42;;;;;;;16.88;4.97;;;486.60;1868.80;;;;;;4935835;29;20386;-83
2022/03/31 10:09:12;;;;;;;18.10;4.80;;;486.60;1843.20;;;;;;4934950;29;20389;-80
2022/03/31 10:11:41;;;;;;;18.15;4.72;;;486.50;1843.20;;;;;;4919005;29;20461;-79
2022/03/31 10:14:15;;;;;;;15.90;4.50;;;486.60;1817.60;;;;;;4934796;29;20425;-81
2022/03/31 10:16:54;;;;;;;20.33;5.40;;;486.60;1817.60;;;;;;4936078;29;20866;-80
2022/03/31 10:19:31;;;;;;;15.43;4.75;;;486.60;1817.60;;;;;;4935822;29;20402;-80
2022/03/31 10:21:58;;;;;;;16.50;5.07;;;486.60;1792.00;;;;;;4934798;29;20401;-80
2022/03/31 10:24:44;;;;;;;20.73;4.63;;;486.60;1792.00;;;;;;4935983;29;20390;-80
2022/03/31 10:27:28;;;;;;;17.15;4.55;;;486.60;1766.40;;;;;;4934766;29;20529;-81
2022/03/31 10:29:55;;;;;;;16.10;4.22;;;486.60;1766.40;;;;;;4918752;29;20385;-80
2022/03/31 10:32:24;;;;;;;15.57;3.87;;;486.60;1766.40;;;;;;4934085;29;20524;-82
2022/03/31 10:34:51;;;;;;;18.67;4.63;;;486.60;1740.80;;;;;;4935507;29;20413;-81
2022/03/31 10:37:38;;;;;;;14.27;4.05;;;486.70;1766.40;;;;;;4935720;29;20417;-82
2022/03/31 10:40:08;;;;;;;16.77;4.07;;;486.70;1766.40;;;;;;4916823;29;20393;-83
2022/03/31 10:42:34;;;;;;;20.63;4.88;;;486.60;1766.40;;;;;;4934298;29;20386;-82
2022/03/31 10:45:12;;;;;;;16.73;4.18;;;486.60;1766.40;;;;;;4935298;29;20389;-83
2022/03/31 10:47:42;;;;;;;22.55;4.38;;;486.60;1715.20;;;;;;4935592;29;20469;-82
2022/03/31 10:50:11;;;;;;;15.57;3.75;;;486.60;1740.80;;;;;;4928604;29;20374;-80
2022/03/31 10:52:40;;;;;;;14.95;4.25;;;486.60;1740.80;;;;;;4935113;29;20400;-86
2022/03/31 10:55:13;;;;;;;17.38;5.82;;;486.70;1715.20;;;;;;4934668;29;20545;-81
2022/03/31 10:57:42;;;;;;;18.13;6.07;;;486.70;1715.20;;;;;;4935800;29;20385;-82
2022/03/31 11:00:16;;;;;;;14.85;4.40;;;486.70;1689.60;;;;;;4934452;29;20390;-81
2022/03/31 11:02:46;;;;;;;17.90;4.72;;;486.70;1689.60;;;;;;4934120;29;20470;-81
2022/03/31 11:05:12;;;;;;;18.08;3.83;;;486.60;1689.60;;;;;;4935450;29;20410;-83
2022/03/31 11:07:39;;;;;;;16.25;4.93;;;486.60;1689.60;;;;;;4934258;29;20422;-82
2022/03/31 11:10:09;;;;;;;18.02;5.15;;;461.70;1689.60;;;;;;4918195;29;20404;-84
2022/03/31 11:12:36;;;;;;;15.85;4.30;;;486.40;1664.00;;;;;;4907674;29;20388;-85
2022/03/31 11:15:10;;;;;;;16.52;4.70;;;486.50;1664.00;;;;;;4934155;29;20410;-83
2022/03/31 11:17:39;;;;;;;16.90;3.90;;;486.50;1689.60;;;;;;4934955;29;20922;-83
2022/03/31 11:20:19;;;;;;;17.60;4.25;;;486.40;1689.60;;;;;;4935315;29;20394;-83
2022/03/31 11:22:50;;;;;;;16.93;4.53;;;486.40;1689.60;;;;;;4935508;29;20437;-81
2022/03/31 11:25:22;;;;;;;16.95;5.32;;;486.50;1689.60;;;;;;4935631;29;20923;-88
2022/03/31 11:27:49;;;;;;;13.88;4.93;;;486.50;1689.60;;;;;;4918816;29;20398;-84
2022/03/31 11:30:20;;;;;;;17.55;4.93;;;486.40;1689.60;;;;;;4935678;29;20386;-83
2022/03/31 11:32:50;;;;;;;14.10;4.30;;;486.40;1715.20;;;;;;4918752;29;20398;-83
2022/03/31 11:35:18;;;;;;;18.17;6.78;;;486.40;1715.20;;;;;;4918508;29;20425;-84
2022/03/31 11:38:02;;;;;;;18.25;6.53;;;486.40;1715.20;;;;;;4918514;29;20415;-83
2022/03/31 11:40:34;;;;;;;20.73;6.03;;;486.60;1715.20;;;;;;4918626;29;20398;-84
2022/03/31 11:43:04;;;;;;;15.80;4.13;;;486.60;1740.80;;;;;;4918768;29;20393;-84
2022/03/31 11:45:34;;;;;;;14.88;4.28;;;486.60;1740.80;;;;;;4935754;29;20386;-85
2022/03/31 11:48:20;;;;;;;16.70;4.40;;;486.60;1740.80;;;;;;4918633;29;20428;-84
2022/03/31 11:50:58;;;;;;;15.40;4.28;;;486.70;1740.80;;;;;;4918409;29;20397;-85
2022/03/31 11:53:27;;;;;;;17.20;4.47;;;486.80;1766.40;;;;;;4918360;29;20417;-85
2022/03/31 11:55:59;;;;;;;16.90;4.63;;;486.90;1766.40;;;;;;4918562;29;20420;-84
2022/03/31 11:58:27;;;;;;;22.35;8.88;;;487.10;1766.40;;;;;;4935549;29;20903;-83
2022/03/31 12:00:54;;;;;;;19.38;8.45;;;487.10;1766.40;;;;;;4935313;29;20946;-83
2022/03/31 12:03:20;;;;;;;17.92;6.20;;;487.10;1740.80;;;;;;4935204;29;20486;-83
2022/03/31 12:05:59;;;;;;;34.63;18.07;;;487.10;1766.40;;;;;;4935172;29;20457;-80
2022/03/31 12:08:27;;;;;;;66.40;33.38;;;487.10;1766.40;;;;;;4933471;29;20754;-82